createdAt,value
2023-02-06T00:01:21.114Z,2.20
2023-02-06T00:03:48.378Z,3.00
2023-02-06T00:06:15.745Z,3.40
2023-02-06T00:08:42.678Z,3.10
2023-02-06T00:11:13.440Z,2.80
2023-02-06T00:13:40.189Z,3.40
2023-02-06T00:16:16.324Z,3.20
2023-02-06T00:18:43.022Z,2.80
2023-02-06T00:21:10.018Z,4.30
2023-02-06T00:23:36.955Z,2.90
2023-02-06T00:26:04.076Z,4.80
2023-02-06T00:28:30.711Z,3.80
2023-02-06T00:30:57.442Z,2.30
2023-02-06T00:33:24.175Z,2.90
2023-02-06T00:35:50.877Z,1.80
2023-02-06T00:38:17.474Z,5.20
2023-02-06T00:40:44.351Z,2.00
2023-02-06T00:43:10.926Z,3.80
2023-02-06T00:45:37.716Z,3.40
2023-02-06T00:48:04.608Z,3.00
2023-02-06T00:50:31.278Z,1.80
2023-02-06T00:52:57.904Z,2.40
2023-02-06T00:55:24.602Z,1.40
2023-02-06T00:57:51.247Z,2.50
2023-02-06T01:00:18.404Z,2.50
2023-02-06T01:02:45.249Z,2.10
2023-02-06T01:05:11.989Z,2.80
2023-02-06T01:07:40.365Z,1.50
2023-02-06T01:10:09.172Z,2.70
2023-02-06T01:12:37.101Z,2.10
2023-02-06T01:15:09.659Z,2.10
2023-02-06T01:17:37.802Z,2.30
2023-02-06T01:20:06.459Z,2.20
2023-02-06T01:22:34.805Z,1.90
2023-02-06T01:25:01.755Z,1.80
2023-02-06T01:27:28.770Z,2.80
2023-02-06T01:29:55.492Z,1.90
2023-02-06T01:32:22.123Z,4.80
2023-02-06T01:34:48.707Z,1.40
2023-02-06T01:37:15.403Z,3.00
2023-02-06T01:39:42.061Z,1.80
2023-02-06T01:42:12.599Z,2.00
2023-02-06T01:44:39.828Z,4.50
2023-02-06T01:47:06.477Z,1.60
2023-02-06T01:49:38.105Z,1.90
2023-02-06T01:52:14.441Z,1.30
2023-02-06T01:54:43.410Z,3.20
2023-02-06T01:57:12.222Z,2.10
2023-02-06T01:59:42.384Z,2.60
2023-02-06T02:02:09.045Z,1.80
2023-02-06T02:04:35.724Z,2.00
2023-02-06T02:07:17.233Z,1.80
2023-02-06T02:09:43.867Z,1.30
2023-02-06T02:12:11.265Z,3.90
2023-02-06T02:14:41.227Z,7.00
2023-02-06T02:17:16.759Z,4.60
2023-02-06T02:20:05.662Z,2.70
2023-02-06T02:23:09.484Z,1.90
2023-02-06T02:26:13.401Z,2.60
2023-02-06T02:28:45.741Z,4.60
2023-02-06T02:31:31.541Z,2.10
2023-02-06T02:34:29.874Z,1.40
2023-02-06T02:37:11.423Z,2.30
2023-02-06T02:40:31.139Z,2.90
2023-02-06T02:43:13.162Z,2.50
2023-02-06T02:45:47.293Z,1.30
2023-02-06T02:48:36.131Z,1.40
2023-02-06T02:51:04.146Z,2.20
2023-02-06T02:53:31.676Z,4.80
2023-02-06T02:56:00.176Z,3.80
2023-02-06T02:58:30.366Z,3.00
2023-02-06T03:01:02.627Z,2.20
2023-02-06T03:06:30.890Z,2.00
2023-02-06T03:09:05.891Z,1.70
2023-02-06T03:11:32.923Z,2.00
2023-02-06T03:14:09.339Z,3.30
2023-02-06T03:16:47.782Z,1.80
2023-02-06T03:19:25.051Z,4.10
2023-02-06T03:21:51.834Z,2.20
2023-02-06T03:24:28.841Z,3.40
2023-02-06T03:27:00.504Z,1.90
2023-02-06T03:29:31.633Z,2.00
2023-02-06T03:32:02.675Z,3.00
2023-02-06T03:34:33.375Z,1.40
2023-02-06T03:37:00.244Z,1.80
2023-02-06T03:39:27.171Z,1.30
2023-02-06T03:41:56.979Z,1.70
2023-02-06T03:44:30.372Z,2.00
2023-02-06T03:47:00.172Z,2.80
2023-02-06T03:49:30.507Z,4.10
2023-02-06T03:52:03.547Z,2.40
2023-02-06T03:54:32.397Z,2.00
2023-02-06T03:57:02.818Z,2.30
2023-02-06T03:59:30.096Z,2.00
2023-02-06T04:01:59.343Z,3.20
2023-02-06T04:04:30.795Z,2.20
2023-02-06T04:07:21.181Z,4.20
2023-02-06T04:09:48.003Z,2.40
2023-02-06T04:12:15.414Z,2.90
2023-02-06T04:14:45.263Z,2.50
2023-02-06T04:17:12.321Z,1.60
2023-02-06T04:19:39.922Z,1.60
2023-02-06T04:22:07.185Z,2.90
2023-02-06T04:24:33.971Z,2.10
2023-02-06T04:27:00.673Z,1.20
2023-02-06T04:29:27.424Z,1.60
2023-02-06T04:31:54.071Z,2.80
2023-02-06T04:34:20.748Z,2.40
2023-02-06T04:36:47.386Z,1.50
2023-02-06T04:39:14.027Z,1.40
2023-02-06T04:41:40.706Z,3.30
2023-02-06T04:44:07.328Z,1.40
2023-02-06T04:46:34.014Z,3.00
2023-02-06T04:49:00.630Z,3.90
2023-02-06T04:51:27.221Z,1.50
2023-02-06T04:53:53.808Z,1.60
2023-02-06T04:56:20.721Z,2.10
2023-02-06T04:58:47.690Z,2.80
2023-02-06T05:01:16.821Z,4.00
2023-02-06T05:03:43.897Z,3.30
2023-02-06T05:06:10.545Z,1.60
2023-02-06T05:08:37.962Z,1.50
2023-02-06T05:11:05.060Z,1.30
2023-02-06T05:13:31.713Z,2.50
2023-02-06T05:16:04.269Z,2.10
2023-02-06T05:18:30.890Z,2.40
2023-02-06T05:20:57.537Z,4.00
2023-02-06T05:23:24.209Z,4.40
2023-02-06T05:25:50.938Z,3.40
2023-02-06T05:28:18.274Z,2.80
2023-02-06T05:30:45.321Z,3.80
2023-02-06T05:33:12.335Z,2.80
2023-02-06T05:35:40.115Z,2.50
2023-02-06T05:38:06.747Z,5.70
2023-02-06T05:40:33.328Z,6.10
2023-02-06T05:43:00.036Z,4.10
2023-02-06T05:45:26.670Z,3.60
2023-02-06T05:47:54.586Z,7.00
2023-02-06T05:50:21.389Z,5.80
2023-02-06T05:52:48.026Z,7.10
2023-02-06T05:55:17.003Z,8.30
2023-02-06T05:57:44.484Z,9.20
2023-02-06T06:00:12.661Z,6.30
2023-02-06T06:02:39.640Z,5.00
2023-02-06T06:05:06.906Z,7.70
2023-02-06T06:07:33.652Z,7.80
2023-02-06T06:10:00.619Z,6.70
2023-02-06T06:12:27.302Z,7.60
2023-02-06T06:14:53.956Z,4.10
2023-02-06T06:17:21.287Z,4.10
2023-02-06T06:19:47.939Z,6.40
2023-02-06T06:22:14.916Z,2.80
2023-02-06T06:24:41.678Z,4.20
2023-02-06T06:27:10.757Z,3.10
2023-02-06T06:29:37.850Z,4.40
2023-02-06T06:32:06.050Z,2.40
2023-02-06T06:34:32.753Z,3.90
2023-02-06T06:36:59.415Z,3.50
2023-02-06T06:39:26.135Z,8.60
2023-02-06T06:41:52.783Z,4.50
2023-02-06T06:44:19.457Z,3.80
2023-02-06T06:46:46.471Z,1.80
2023-02-06T06:49:13.245Z,4.50
2023-02-06T06:51:39.882Z,5.90
2023-02-06T06:54:06.690Z,2.10
2023-02-06T06:56:33.312Z,8.10
2023-02-06T06:58:59.953Z,1.70
2023-02-06T07:01:26.703Z,4.30
2023-02-06T07:03:53.398Z,4.30
2023-02-06T07:06:20.072Z,8.40
2023-02-06T07:08:46.694Z,8.00
2023-02-06T07:11:14.977Z,10.00
2023-02-06T07:13:42.320Z,7.00
2023-02-06T07:16:09.401Z,5.60
2023-02-06T07:18:36.083Z,6.00
2023-02-06T07:21:03.568Z,5.80
2023-02-06T07:23:30.308Z,13.50
2023-02-06T07:26:02.229Z,17.40
2023-02-06T07:28:30.150Z,7.30
2023-02-06T07:31:01.327Z,4.90
2023-02-06T07:33:28.626Z,4.90
2023-02-06T07:35:55.417Z,11.10
2023-02-06T07:38:22.335Z,5.60
2023-02-06T07:40:49.047Z,6.30
2023-02-06T07:43:16.158Z,9.00
2023-02-06T07:45:42.823Z,7.80
2023-02-06T07:48:09.972Z,5.20
2023-02-06T07:50:36.918Z,5.10
2023-02-06T07:53:03.565Z,3.30
2023-02-06T07:55:30.261Z,3.50
2023-02-06T07:57:56.915Z,11.50
2023-02-06T08:00:23.615Z,6.40
2023-02-06T08:02:51.092Z,3.50
2023-02-06T08:05:18.453Z,4.10
2023-02-06T08:07:45.266Z,7.60
2023-02-06T08:10:11.905Z,4.60
2023-02-06T08:12:38.552Z,10.40
2023-02-06T08:15:05.539Z,7.00
2023-02-06T08:17:32.172Z,7.80
2023-02-06T08:19:58.831Z,12.30
2023-02-06T08:22:25.572Z,12.40
2023-02-06T08:24:52.508Z,8.20
2023-02-06T08:27:19.147Z,10.80
2023-02-06T08:29:46.055Z,8.50
2023-02-06T08:32:12.723Z,8.00
2023-02-06T08:34:40.128Z,9.20
2023-02-06T08:37:06.915Z,7.40
2023-02-06T08:39:33.584Z,9.30
2023-02-06T08:42:00.279Z,6.40
2023-02-06T08:44:26.861Z,4.70
2023-02-06T08:47:08.897Z,6.20
2023-02-06T08:49:36.520Z,9.00
2023-02-06T08:52:03.436Z,13.50
2023-02-06T08:54:30.186Z,14.50
2023-02-06T08:56:58.451Z,8.20
2023-02-06T08:59:25.216Z,9.10
2023-02-06T09:01:52.261Z,6.70
2023-02-06T09:04:19.560Z,6.40
2023-02-06T09:06:50.329Z,9.80
2023-02-06T09:09:17.075Z,10.80
2023-02-06T09:11:44.118Z,6.10
2023-02-06T09:14:15.624Z,5.20
2023-02-06T09:16:42.373Z,5.10
2023-02-06T09:19:10.877Z,5.20
2023-02-06T09:21:38.241Z,3.30
2023-02-06T09:24:08.640Z,3.40
2023-02-06T09:26:44.770Z,3.40
2023-02-06T09:29:20.338Z,4.70
2023-02-06T09:31:47.814Z,2.70
2023-02-06T09:34:14.631Z,2.50
2023-02-06T09:36:41.948Z,6.30
2023-02-06T09:39:09.544Z,5.00
2023-02-06T09:41:44.746Z,5.00
2023-02-06T09:44:24.610Z,9.60
2023-02-06T09:46:56.518Z,3.30
2023-02-06T09:49:39.726Z,5.10
2023-02-06T09:52:25.311Z,3.20
2023-02-06T09:54:59.212Z,5.20
2023-02-06T09:57:31.393Z,6.60
2023-02-06T10:03:15.308Z,5.00
2023-02-06T10:05:54.256Z,4.20
2023-02-06T10:08:52.325Z,4.80
2023-02-06T10:11:48.041Z,4.00
2023-02-06T10:14:22.360Z,5.40
2023-02-06T10:17:02.851Z,4.60
2023-02-06T10:19:43.814Z,2.00
2023-02-06T10:22:28.696Z,3.20
2023-02-06T10:25:21.114Z,3.30
2023-02-06T10:27:54.826Z,2.70
2023-02-06T10:30:35.803Z,2.90
2023-02-06T10:33:25.234Z,2.90
2023-02-06T10:36:08.600Z,3.50
2023-02-06T10:38:35.137Z,5.90
2023-02-06T10:41:34.785Z,2.50
2023-02-06T10:44:18.396Z,6.70
2023-02-06T10:46:51.003Z,3.50
2023-02-06T10:49:53.301Z,6.30
2023-02-06T10:55:32.823Z,3.70
2023-02-06T10:58:16.465Z,4.10
2023-02-06T11:00:46.478Z,3.60
2023-02-06T11:03:20.437Z,9.40
2023-02-06T11:05:48.101Z,7.60
2023-02-06T11:08:31.897Z,5.60
2023-02-06T11:11:25.362Z,3.80
2023-02-06T11:14:05.502Z,4.40
2023-02-06T11:16:36.216Z,4.60
2023-02-06T11:19:31.334Z,3.90
2023-02-06T11:22:27.037Z,4.00
2023-02-06T11:24:59.738Z,4.40
2023-02-06T11:27:27.769Z,6.20
2023-02-06T11:29:55.086Z,2.70
2023-02-06T11:32:52.759Z,3.00
2023-02-06T11:35:47.451Z,3.20
2023-02-06T11:38:23.080Z,4.10
2023-02-06T11:41:16.512Z,4.90
2023-02-06T11:43:43.056Z,5.10
2023-02-06T11:46:24.558Z,6.60
2023-02-06T11:48:58.678Z,3.90
2023-02-06T11:51:44.297Z,6.30
2023-02-06T11:54:20.908Z,9.60
2023-02-06T11:57:19.113Z,3.20
2023-02-06T12:00:00.842Z,4.30
2023-02-06T12:02:39.162Z,4.30
2023-02-06T12:05:13.369Z,6.10
2023-02-06T12:08:02.898Z,4.20
2023-02-06T12:10:35.033Z,4.50
2023-02-06T12:13:28.033Z,4.60
2023-02-06T12:16:00.908Z,4.50
2023-02-06T12:18:37.077Z,8.10
2023-02-06T12:21:13.414Z,3.40
2023-02-06T12:23:45.958Z,5.90
2023-02-06T12:26:22.647Z,3.70
2023-02-06T12:29:11.948Z,4.50
2023-02-06T12:31:47.657Z,5.80
2023-02-06T12:34:20.164Z,8.30
2023-02-06T12:37:08.895Z,4.00
2023-02-06T12:39:35.638Z,4.30
2023-02-06T12:42:14.565Z,4.00
2023-02-06T12:44:54.116Z,2.80
2023-02-06T12:47:42.339Z,3.10
2023-02-06T12:50:20.237Z,3.30
2023-02-06T12:53:19.480Z,5.90
2023-02-06T12:55:55.177Z,11.70
2023-02-06T12:58:42.136Z,6.40
2023-02-06T13:01:34.680Z,5.70
2023-02-06T13:04:33.102Z,4.50
2023-02-06T13:07:06.722Z,4.80
2023-02-06T13:09:59.537Z,5.30
2023-02-06T13:12:31.115Z,4.30
2023-02-06T13:15:02.247Z,3.70
2023-02-06T13:17:35.763Z,4.10
2023-02-06T13:20:05.483Z,2.50
2023-02-06T13:22:45.866Z,4.10
2023-02-06T13:25:30.701Z,5.00
2023-02-06T13:27:59.481Z,3.40
2023-02-06T13:30:28.948Z,3.20
2023-02-06T13:33:14.396Z,6.00
2023-02-06T13:36:02.722Z,3.10
2023-02-06T13:38:35.455Z,4.30
2023-02-06T13:41:17.116Z,5.00
2023-02-06T13:44:22.425Z,4.00
2023-02-06T13:47:08.699Z,5.10
2023-02-06T13:50:19.382Z,4.50
2023-02-06T13:53:01.219Z,6.00
2023-02-06T13:55:43.151Z,3.80
2023-02-06T13:58:24.278Z,8.20
2023-02-06T14:00:52.256Z,5.50
2023-02-06T14:03:32.411Z,5.80
2023-02-06T14:06:11.460Z,6.30
2023-02-06T14:09:01.760Z,4.90
2023-02-06T14:14:53.388Z,2.60
2023-02-06T14:17:39.192Z,3.20
2023-02-06T14:20:33.358Z,4.00
2023-02-06T14:24:11.216Z,4.40
2023-02-06T14:27:03.003Z,4.00
2023-02-06T14:29:59.629Z,3.90
2023-02-06T14:32:48.274Z,3.60
2023-02-06T14:35:14.876Z,4.00
2023-02-06T14:38:26.030Z,4.60
2023-02-06T14:40:55.543Z,7.10
2023-02-06T14:43:26.125Z,5.20
2023-02-06T14:46:07.018Z,5.00
2023-02-06T14:48:43.783Z,4.40
2023-02-06T14:51:26.735Z,3.00
2023-02-06T14:54:05.518Z,4.60
2023-02-06T14:56:38.008Z,4.80
2023-02-06T14:59:13.701Z,3.70
2023-02-06T15:01:41.883Z,4.30
2023-02-06T15:04:18.420Z,3.20
2023-02-06T15:06:56.529Z,1.40
2023-02-06T15:12:04.239Z,3.70
2023-02-06T15:14:33.746Z,3.70
2023-02-06T15:17:02.737Z,3.20
2023-02-06T15:19:32.349Z,5.70
2023-02-06T15:22:11.687Z,5.30
2023-02-06T15:25:12.452Z,4.70
2023-02-06T15:27:39.599Z,5.50
2023-02-06T15:30:22.304Z,3.30
2023-02-06T15:32:52.090Z,4.00
2023-02-06T15:35:27.766Z,4.80
2023-02-06T15:37:55.210Z,5.60
2023-02-06T15:40:32.227Z,3.40
2023-02-06T15:43:00.253Z,6.00
2023-02-06T15:45:34.543Z,5.00
2023-02-06T15:48:11.722Z,5.30
2023-02-06T15:50:38.818Z,7.50
2023-02-06T15:53:29.376Z,6.30
2023-02-06T15:55:59.159Z,4.50
2023-02-06T15:58:26.397Z,6.50
2023-02-06T16:00:55.680Z,6.40
2023-02-06T16:03:26.057Z,5.90
2023-02-06T16:05:54.269Z,4.20
2023-02-06T16:08:39.045Z,8.10
2023-02-06T16:11:28.436Z,4.60
2023-02-06T16:13:55.184Z,6.70
2023-02-06T16:16:24.359Z,5.80
2023-02-06T16:18:55.130Z,7.40
2023-02-06T16:21:29.013Z,8.00
2023-02-06T16:24:00.093Z,7.10
2023-02-06T16:26:29.843Z,7.60
2023-02-06T16:29:08.309Z,8.30
2023-02-06T16:31:38.096Z,10.00
2023-02-06T16:34:21.895Z,13.40
2023-02-06T16:36:48.675Z,9.30
2023-02-06T16:39:15.243Z,6.40
2023-02-06T16:41:42.926Z,10.10
2023-02-06T16:44:14.836Z,9.70
2023-02-06T16:46:41.659Z,7.80
2023-02-06T16:49:13.936Z,8.00
2023-02-06T16:54:09.787Z,6.50
2023-02-06T16:56:38.605Z,8.00
2023-02-06T16:59:05.277Z,6.80
2023-02-06T17:01:33.003Z,8.00
2023-02-06T17:03:59.736Z,9.20
2023-02-06T17:06:28.927Z,6.80
2023-02-06T17:09:03.474Z,9.60
2023-02-06T17:11:31.422Z,6.10
2023-02-06T17:13:58.448Z,6.90
2023-02-06T17:16:26.597Z,8.10
2023-02-06T17:18:54.382Z,8.60
2023-02-06T17:21:23.536Z,9.40
2023-02-06T17:23:51.161Z,10.80
2023-02-06T17:26:20.619Z,7.30
2023-02-06T17:28:48.528Z,9.30
2023-02-06T17:31:15.666Z,8.80
2023-02-06T17:33:42.501Z,10.10
2023-02-06T17:36:29.530Z,9.40
2023-02-06T17:38:59.052Z,13.10
2023-02-06T17:41:27.356Z,9.10
2023-02-06T17:43:54.092Z,8.60
2023-02-06T17:46:20.984Z,12.50
2023-02-06T17:48:47.965Z,22.00
2023-02-06T17:51:15.091Z,17.40
2023-02-06T17:53:41.795Z,10.40
2023-02-06T17:56:14.955Z,12.40
2023-02-06T17:58:42.793Z,13.60
2023-02-06T18:01:18.595Z,12.90
2023-02-06T18:03:47.879Z,15.90
2023-02-06T18:06:14.985Z,19.10
2023-02-06T18:08:41.777Z,17.90
2023-02-06T18:11:14.237Z,15.40
2023-02-06T18:13:42.770Z,12.30
2023-02-06T18:16:19.107Z,16.60
2023-02-06T18:18:46.546Z,15.90
2023-02-06T18:21:13.781Z,14.60
2023-02-06T18:23:40.424Z,14.10
2023-02-06T18:26:09.441Z,13.30
2023-02-06T18:28:38.136Z,10.40
2023-02-06T18:31:06.568Z,13.70
2023-02-06T18:33:35.275Z,8.90
2023-02-06T18:36:06.356Z,11.00
2023-02-06T18:38:33.342Z,13.70
2023-02-06T18:41:05.212Z,11.80
2023-02-06T18:43:32.791Z,10.40
2023-02-06T18:46:06.916Z,12.60
2023-02-06T18:48:33.533Z,8.50
2023-02-06T18:51:00.952Z,9.60
2023-02-06T18:53:27.733Z,11.10
2023-02-06T18:55:58.825Z,51.00
2023-02-06T18:58:25.432Z,54.40
2023-02-06T19:00:52.084Z,11.30
2023-02-06T19:03:18.660Z,10.40
2023-02-06T19:05:45.341Z,10.90
2023-02-06T19:08:11.916Z,12.60
2023-02-06T19:10:40.142Z,11.50
2023-02-06T19:13:06.907Z,10.80
2023-02-06T19:15:35.988Z,12.70
2023-02-06T19:18:04.512Z,12.20
2023-02-06T19:20:31.542Z,14.30
2023-02-06T19:22:58.265Z,13.70
2023-02-06T19:25:25.028Z,18.00
2023-02-06T19:27:51.745Z,19.00
2023-02-06T19:30:18.490Z,17.10
2023-02-06T19:32:45.213Z,14.00
2023-02-06T19:35:12.053Z,18.50
2023-02-06T19:37:38.916Z,13.90
2023-02-06T19:40:06.043Z,12.50
2023-02-06T19:42:32.845Z,11.40
2023-02-06T19:44:59.896Z,14.70
2023-02-06T19:47:26.533Z,14.30
2023-02-06T19:49:53.384Z,13.10
2023-02-06T19:52:20.370Z,11.30
2023-02-06T19:54:47.887Z,10.10
2023-02-06T19:57:16.066Z,6.50
2023-02-06T19:59:42.821Z,10.60
2023-02-06T20:02:13.018Z,8.20
2023-02-06T20:04:40.300Z,11.40
2023-02-06T20:07:07.110Z,8.30
2023-02-06T20:09:34.458Z,11.10
2023-02-06T20:12:01.098Z,10.00
2023-02-06T20:14:28.024Z,11.20
2023-02-06T20:16:55.426Z,10.20
2023-02-06T20:19:26.994Z,10.60
2023-02-06T20:21:57.955Z,9.80
2023-02-06T20:24:30.226Z,7.80
2023-02-06T20:27:00.739Z,8.40
2023-02-06T20:29:31.403Z,12.10
2023-02-06T20:31:58.725Z,11.70
2023-02-06T20:34:26.952Z,10.20
2023-02-06T20:36:55.495Z,12.00
2023-02-06T20:39:22.537Z,10.40
2023-02-06T20:41:50.680Z,13.10
2023-02-06T20:44:19.764Z,10.40
2023-02-06T20:46:46.825Z,14.60
2023-02-06T20:49:16.400Z,6.00
2023-02-06T20:51:43.484Z,9.00
2023-02-06T20:54:13.516Z,12.90
2023-02-06T20:56:40.879Z,13.70
2023-02-06T20:59:11.949Z,9.40
2023-02-06T21:01:40.041Z,9.50
2023-02-06T21:04:09.126Z,9.10
2023-02-06T21:06:37.259Z,10.50
2023-02-06T21:09:06.040Z,5.60
2023-02-06T21:11:36.556Z,12.80
2023-02-06T21:14:05.413Z,10.10
2023-02-06T21:16:34.182Z,12.70
2023-02-06T21:19:01.786Z,8.30
2023-02-06T21:21:28.635Z,8.40
2023-02-06T21:23:58.124Z,12.20
2023-02-06T21:26:25.200Z,9.20
2023-02-06T21:28:52.818Z,8.80
2023-02-06T21:31:22.852Z,7.80
2023-02-06T21:33:51.499Z,9.50
2023-02-06T21:36:18.940Z,9.00
2023-02-06T21:38:45.531Z,9.70
2023-02-06T21:41:18.154Z,9.60
2023-02-06T21:43:45.887Z,9.80
2023-02-06T21:46:13.518Z,4.70
2023-02-06T21:48:41.640Z,10.00
2023-02-06T21:51:13.524Z,8.10
2023-02-06T21:53:41.950Z,6.00
2023-02-06T21:56:21.232Z,10.60
2023-02-06T21:58:49.643Z,8.30
2023-02-06T22:01:19.066Z,7.40
2023-02-06T22:03:46.816Z,8.60
2023-02-06T22:06:14.628Z,7.80
2023-02-06T22:08:44.556Z,10.00
2023-02-06T22:11:16.786Z,9.30
2023-02-06T22:13:44.869Z,8.70
2023-02-06T22:16:14.518Z,8.10
2023-02-06T22:18:42.270Z,8.70
2023-02-06T22:21:12.286Z,9.20
2023-02-06T22:23:39.630Z,9.00
2023-02-06T22:26:08.081Z,9.60
2023-02-06T22:28:34.928Z,10.50
2023-02-06T22:31:13.334Z,9.20
2023-02-06T22:33:40.296Z,11.50
2023-02-06T22:36:10.416Z,8.30
2023-02-06T22:38:37.753Z,10.40
2023-02-06T22:41:07.991Z,8.50
2023-02-06T22:43:37.533Z,13.70
2023-02-06T22:46:05.535Z,8.40
2023-02-06T22:48:32.362Z,6.70
2023-02-06T22:51:07.919Z,6.20
2023-02-06T22:53:35.358Z,9.20
2023-02-06T22:56:24.254Z,12.10
2023-02-06T22:58:51.580Z,11.00
2023-02-06T23:01:21.298Z,9.90
2023-02-06T23:03:51.752Z,10.80
2023-02-06T23:06:18.886Z,7.70
2023-02-06T23:08:45.658Z,10.00
2023-02-06T23:11:13.233Z,10.90
2023-02-06T23:13:40.506Z,10.40
2023-02-06T23:16:08.386Z,8.50
2023-02-06T23:18:35.863Z,10.50
2023-02-06T23:21:08.435Z,8.90
2023-02-06T23:23:35.156Z,9.10
2023-02-06T23:26:02.078Z,8.20
2023-02-06T23:28:29.190Z,7.50
2023-02-06T23:30:55.848Z,11.00
2023-02-06T23:33:23.886Z,10.40
2023-02-06T23:35:50.955Z,9.90
2023-02-06T23:38:18.658Z,9.40
2023-02-06T23:40:46.177Z,9.40
2023-02-06T23:43:12.841Z,9.80
2023-02-06T23:45:41.429Z,10.40
2023-02-06T23:48:08.270Z,9.10
2023-02-06T23:50:35.880Z,8.80
2023-02-06T23:53:02.628Z,10.30
2023-02-06T23:55:30.621Z,10.50
2023-02-06T23:57:57.648Z,10.90
